Latest Coastal Weather Observations for Hobart Airport

IDT60701

Issued at 1:12 am EDT Thursday 8 December 2016 (issued every 10 minutes, with the page automatically refreshed every 10 minutes)

About coastal observations | Map of coastal stations | Coastal observations for TAS | Marine services | Other Formats
Station Details ID: 094008 Name: HOBART AIRPORT Lat: -42.83 Lon: 147.50 Height: 4.0 m
Data from the previous 72 hours. | See also: Recent months at Hobart Airport
Date/Time
EDT
Temp
°C
Wind Pressure Rain since
9am
mm
Weather Cloud Vis
km
Sea
Height
m
Swell
Dir  Spd
kts
Gust
kts
hPa Trend Height
m
Period
s
Dir
08/01:00am 11.3 SSW 4 5 1004.7 - 0.0 - - 10 - - - -
08/12:30am 11.2 CALM 0 0 1005.4 - 0.0 - - 10 - - - -
08/12:00am 12.1 CALM 0 0 1006.6 F 0.0 Haze Mostly clear 20 - - - -
 
Date/Time
EDT
Temp
°C
Wind Pressure Rain since
9am
mm
Weather Cloud Vis
km
Sea
Height
m
Swell
Dir  Spd
kts
Gust
kts
hPa Trend Height
m
Period
s
Dir
07/11:30pm 12.3 CALM 0 0 1007.2 - 0.0 - - 10 - - - -
07/11:00pm 12.4 NE 3 4 1007.1 - 0.0 - - 10 - - - -
07/10:30pm 13.4 CALM 0 1 1007.1 - 0.0 - Cloudy 10 - - - -
07/10:00pm 13.5 SSE 4 5 1007.7 - 0.0 - Partly cloudy 10 - - - -
07/09:30pm 13.7 S 6 8 1007.8 - 0.0 - - 10 - - - -
07/09:00pm 14.3 S 8 10 1007.6 F 0.0 Haze Mostly cloudy 20 - - - -
07/08:30pm 14.4 S 6 9 1007.7 - 0.0 - - 10 - - - -
07/08:00pm 15.1 SSW 11 15 1007.6 - 0.0 - - 10 - - - -
07/07:30pm 15.7 SSW 11 15 1007.6 - 0.0 - Mostly clear 10 - - - -
07/07:00pm 17.0 S 12 15 1007.6 - 0.0 - Mostly clear 10 - - - -
07/06:30pm 18.2 S 10 15 1007.5 - 0.0 - Partly cloudy 10 - - - -
07/06:00pm 19.5 SSW 10 13 1007.5 F 0.0 Haze Partly cloudy 20 - - - -
07/05:30pm 19.7 SSW 11 15 1007.6 - 0.0 - Mostly clear 10 - - - -
07/05:00pm 20.8 SSE 12 15 1007.6 - 0.0 - - 10 - - - -
07/04:30pm 19.0 SSE 9 14 1007.9 - 0.0 - Mostly clear 10 - - - -
07/04:00pm 22.9 NW 12 17 1007.9 - 0.0 - Mostly clear 10 - - - -
07/03:30pm 22.6 NW 9 12 1008.2 - 0.0 - Mostly clear 10 - - - -
07/03:00pm 21.9 NW 10 15 1008.3 F 0.0 Haze Partly cloudy 30 - - - -
07/02:30pm 22.4 WNW 10 16 1008.4 - 0.0 - - 10 - - - -
07/02:00pm 21.7 NW 11 18 1008.8 - 0.0 - Partly cloudy 10 - - - -
07/01:30pm 20.7 NW 10 15 1009.1 - 0.0 - Cloudy 10 - - - -
07/01:00pm 21.5 NW 13 18 1009.3 - 0.0 - Partly cloudy 10 - - - -
07/12:30pm 20.5 WNW 11 16 1009.5 - 0.0 - Mostly clear 10 - - - -
07/12:00pm 19.6 NW 15 20 1009.9 F 0.0 Haze Partly cloudy 35 - - - -
07/11:30am 20.9 WNW 15 21 1010.0 - 0.0 - Mostly clear 10 - - - -
07/11:00am 20.0 NW 17 22 1010.2 - 0.0 - Mostly clear 10 - - - -
07/10:30am 19.1 NW 15 21 1010.3 - 0.0 - Partly cloudy 10 - - - -
07/10:00am 17.4 NW 10 16 1010.7 - 0.0 - Mostly clear 10 - - - -
07/09:30am 17.3 NW 12 17 1010.9 - 0.0 - Mostly clear 10 - - - -
07/09:00am 16.9 N 10 17 1011.1 F 0.0 Haze Mostly cloudy 35 - - - -
07/08:30am 16.5 N 9 13 1011.3 - 0.0 - Mostly clear 10 - - - -
07/08:00am 15.2 N 7 10 1011.2 - 0.0 - Mostly clear 10 - - - -
07/07:30am 14.3 N 9 12 1011.0 - 0.0 - Mostly clear 10 - - - -
07/07:00am 13.7 NNE 6 8 1011.1 - 0.0 - Mostly clear 10 - - - -
07/06:30am 12.5 NNE 7 10 1010.9 - 0.0 - Mostly clear 10 - - - -
07/06:00am 12.2 N 8 12 1010.7 R 0.0 Fine Mostly cloudy 40 - - - -
07/05:30am 12.3 NNW 6 10 1010.3 - 0.0 - Mostly clear 10 - - - -
07/05:00am 12.1 NNW 9 15 1010.0 - 0.0 - Mostly clear 10 - - - -
07/04:30am 12.4 NNW 8 12 1009.9 - 0.0 - Mostly clear 10 - - - -
07/04:00am 11.7 N 7 9 1009.8 - 0.0 - Mostly clear 10 - - - -
07/03:30am 12.7 N 8 11 1009.9 - 0.0 - Mostly clear 10 - - - -
07/03:00am 12.6 N 9 14 1009.9 R 0.0 Fine Partly cloudy 40 - - - -
07/02:30am 12.9 NNW 9 13 1010.2 - 0.0 - Mostly clear 10 - - - -
07/02:00am 13.3 NNW 8 12 1010.4 - 0.0 - Mostly clear 10 - - - -
07/01:30am 13.5 N 9 13 1010.4 - 0.0 - Mostly clear 10 - - - -
07/01:00am 13.5 N 7 11 1010.5 - 0.0 - Mostly clear 10 - - - -
07/12:30am 14.0 NNW 11 16 1010.4 - 0.0 - - 10 - - - -
07/12:00am 14.1 NNW 8 14 1010.6 F 0.0 Fine Mostly cloudy 40 - - - -
 
Date/Time
EDT
Temp
°C
Wind Pressure Rain since
9am
mm
Weather Cloud Vis
km
Sea
Height
m
Swell
Dir  Spd
kts
Gust
kts
hPa Trend Height
m
Period
s
Dir
06/11:30pm 14.0 NNW 8 11 1010.7 - 0.0 - - 10 - - - -
06/11:00pm 13.1 NNW 5 8 1010.7 - 0.0 - - 10 - - - -
06/10:30pm 14.0 NNW 6 9 1010.6 - 0.0 - - 10 - - - -
06/10:00pm 14.8 NNW 8 11 1010.5 - 0.0 - - 10 - - - -
06/09:30pm 15.2 WNW 13 16 1010.3 - 0.0 - - 10 - - - -
06/09:00pm 15.4 NW 10 14 1010.3 R 0.0 Fine Mostly cloudy 40 - - - -
06/08:30pm 15.6 WNW 12 18 1009.8 - 0.0 - Partly cloudy 10 - - - -
06/08:00pm 15.8 NE 4 5 1009.8 - 0.0 - Mostly clear 10 - - - -
06/07:30pm 15.8 ENE 4 6 1009.2 - 0.0 - Mostly clear 10 - - - -
06/07:00pm 15.2 E 5 6 1008.9 - 0.0 - Mostly clear 10 - - - -
06/06:30pm 15.0 NE 5 7 1008.8 - 0.0 - Mostly clear 10 - - - -
06/06:00pm 15.4 E 5 7 1008.4 F 0.0 Haze Partly cloudy 30 - - - -
06/05:30pm 15.7 S 6 8 1008.4 - 0.0 - Mostly clear 10 - - - -
06/05:00pm 15.2 S 10 14 1008.5 - 0.0 - Mostly clear 10 - - - -
06/04:30pm 14.9 SSE 14 18 1008.7 - 0.0 - Mostly clear 10 - - - -
06/04:00pm 15.5 SSE 13 18 1008.7 - 0.0 - Mostly clear 10 - - - -
06/03:30pm 16.3 SSE 8 11 1008.5 - 0.0 - Mostly clear 10 - - - -
06/03:00pm 15.8 SE 9 12 1008.6 F 0.0 Haze Partly cloudy 25 - - - -
06/02:30pm 18.1 SE 9 15 1008.4 - 0.0 - Mostly clear 10 - - - -
06/02:00pm 16.0 SE 8 10 1008.9 - 0.0 - Mostly clear 10 - - - -
06/01:30pm 16.5 SE 8 12 1009.1 - 0.0 - Mostly clear 10 - - - -
06/01:00pm 15.4 SE 9 12 1009.4 - 0.0 - Mostly clear 10 - - - -
06/12:30pm 15.1 SE 8 12 1009.8 - 0.0 - Partly cloudy 10 - - - -
06/12:00pm 15.9 SE 8 10 1009.9 F 0.0 Haze Partly cloudy 25 - - - -
06/11:30am 14.3 SSE 7 9 1010.3 - 0.0 - Mostly clear 10 - - - -
06/11:00am 14.1 SE 5 7 1010.2 - 0.0 - Mostly clear 10 - - - -
06/10:30am 14.0 SE 6 8 1010.5 - 0.0 - Mostly clear 10 - - - -
06/10:00am 13.3 SW 4 6 1010.7 - 0.0 - Mostly clear 10 - - - -
06/09:30am 12.8 ESE 4 7 1010.8 - 0.0 - Mostly clear 10 - - - -
06/09:00am 12.4 S 5 6 1011.4 F 0.0 Haze Cloudy 15 - - - -
06/08:30am 11.5 S 5 6 1011.7 - 0.0 - Mostly clear 10 - - - -
06/08:00am 11.6 SSW 5 6 1011.6 - 0.0 - Mostly clear 10 - - - -
06/07:30am 11.1 SSW 7 9 1011.6 - 0.0 - Mostly clear 10 - - - -
06/07:00am 10.9 SSW 7 9 1011.4 - 0.0 - Mostly clear 10 - - - -
06/06:30am 11.6 WSW 5 7 1011.3 - 0.0 - Cloudy 10 - - - -
06/06:00am 11.8 SSW 6 8 1010.9 F 0.0 Drizzle Cloudy 10 - - - -
06/05:30am 12.0 WSW 5 6 1010.8 - 0.0 - Cloudy 10 - - - -
06/05:00am 12.1 WNW 4 7 1010.6 - 0.0 - Cloudy 10 - - - -
06/04:30am 12.4 WNW 4 5 1010.4 - 0.0 - Cloudy 10 - - - -
06/04:00am 11.9 WNW 4 5 1010.3 - 0.0 - Cloudy 10 - - - -
06/03:30am 11.4 WSW 5 6 1010.7 - 0.0 - Cloudy 10 - - - -
06/03:00am 11.5 WNW 8 10 1011.1 F 0.0 Drizzle Cloudy 10 - - - -
06/02:30am 12.4 NW 7 8 1011.0 - 0.0 - Cloudy 10 - - - -
06/02:25am 12.3 NW 6 7 1011.1 - 0.0 - Cloudy 10 - - - -
06/02:14am 12.5 NW 6 8 1011.3 - 0.0 - Partly cloudy 6 - - - -
06/02:07am 12.7 N 6 10 1011.3 - 0.0 - Partly cloudy 6 - - - -
06/02:00am 13.2 NNE 7 11 1011.3 - 0.0 - Partly cloudy 10 - - - -
06/01:30am 12.9 NW 6 7 1011.5 - 0.0 - Partly cloudy 10 - - - -
06/01:00am 12.7 NW 6 8 1011.6 - 0.0 - Cloudy 10 - - - -
06/12:30am 12.8 NNW 5 7 1011.9 - 0.0 - Cloudy 10 - - - -
06/12:00am 12.4 N 6 8 1012.4 R 0.0 - - 10 - - - -
 
Date/Time
EDT
Temp
°C
Wind Pressure Rain since
9am
mm
Weather Cloud Vis
km
Sea
Height
m
Swell
Dir  Spd
kts
Gust
kts
hPa Trend Height
m
Period
s
Dir
05/11:30pm 12.8 N 6 9 1012.4 - 0.0 - - 10 - - - -
05/11:00pm 13.6 N 6 8 1012.4 - 0.0 - - 10 - - - -
05/10:30pm 13.9 NNW 6 9 1012.3 - 0.0 - Partly cloudy 10 - - - -
05/10:00pm 14.5 NNW 6 8 1012.3 - 0.0 - Partly cloudy 10 - - - -
05/09:30pm 15.2 NNW 9 13 1011.7 - 0.0 - Partly cloudy 10 - - - -
05/09:00pm 15.4 WNW 7 9 1011.1 R 0.0 - - 10 - - - -
05/08:30pm 15.5 W 7 9 1010.5 - 0.0 - - 10 - - - -
05/08:00pm 16.9 WSW 11 16 1009.5 - 0.0 - - 10 - - - -
05/07:30pm 18.2 W 9 13 1009.4 - 0.0 - - 10 - - - -
05/07:00pm 18.6 W 12 16 1009.1 - 0.0 - - 10 - - - -
05/06:30pm 19.1 NW 13 18 1008.7 - 0.0 - - 10 - - - -
05/06:00pm 19.7 WNW 14 18 1008.1 R 0.0 Fine Mostly clear 35 - - - -
05/05:30pm 19.8 NW 12 17 1007.8 - 0.0 - - 10 - - - -
05/05:00pm 20.0 NW 16 21 1007.4 - 0.0 - - 10 - - - -
05/04:30pm 20.2 WNW 16 21 1007.1 - 0.0 - - 10 - - - -
05/04:00pm 20.3 WNW 16 21 1006.9 - 0.0 - - 10 - - - -
05/03:30pm 20.9 WNW 16 23 1006.5 - 0.0 - - 10 - - - -
05/03:00pm 21.1 WNW 16 20 1006.3 R 0.0 Fine Mostly clear 40 - - - -
05/02:30pm 20.7 WNW 15 21 1005.7 - 0.0 - - 10 - - - -
05/02:00pm 20.9 W 18 26 1005.4 - 0.0 - - 10 - - - -
05/01:35pm 20.5 WNW 19 29 1005.0 - 0.0 - - 10 - - - -
05/01:30pm 21.0 WNW 21 29 1004.9 - 0.0 - - 10 - - - -
05/01:00pm 20.7 W 18 26 1004.5 - 0.0 - - 10 - - - -
05/12:30pm 20.6 W 18 30 1004.0 - 0.0 - - 10 - - - -
05/12:16pm 20.7 WNW 21 31 1003.6 - 0.0 - - 10 - - - -
05/12:00pm 20.5 WNW 20 27 1003.5 R 0.0 Fine Mostly clear 40 - - - -
05/11:30am 19.6 WNW 21 31 1003.2 - 0.0 - Mostly clear 10 - - - -
05/11:04am 19.1 W 22 34 1002.6 - 0.0 - Mostly clear 10 - - - -
05/11:00am 19.3 W 21 29 1002.6 - 0.0 - Mostly clear 10 - - - -
05/10:30am 18.4 WNW 23 34 1002.5 - 0.0 - Mostly clear 10 - - - -
05/10:18am 18.2 WNW 21 31 1002.6 - 0.0 - Mostly clear 10 - - - -
05/10:00am 18.3 W 22 30 1002.7 - 0.0 - Mostly clear 10 - - - -
05/09:31am 17.9 WNW 20 32 1002.6 - 0.0 - Mostly clear 10 - - - -
05/09:30am 17.7 W 20 28 1002.5 - 0.0 - Mostly clear 10 - - - -
05/09:00am 17.5 WNW 16 25 1002.0 R 4.6 Fine Mostly clear 35 - - - -
05/08:53am 17.8 WNW 16 26 1002.0 - 4.6 - Mostly clear 10 - - - -
05/08:30am 17.1 WNW 17 26 1001.5 - 4.6 - Mostly clear 10 - - - -
05/08:00am 17.2 WNW 17 25 1000.9 - 4.6 - Mostly clear 10 - - - -
05/07:30am 17.3 WNW 21 28 999.3 - 4.6 - Mostly clear 10 - - - -
05/07:19am 17.5 WNW 19 29 999.4 - 4.6 - Mostly clear 10 - - - -
05/07:00am 17.9 WNW 17 24 999.1 - 4.6 - Mostly clear 10 - - - -
05/06:30am 18.4 NW 16 23 998.2 - 4.6 - Mostly clear 10 - - - -
05/06:00am 18.5 W 18 23 997.3 R 4.6 Fine Mostly clear 35 - - - -
05/05:49am 18.8 W 15 26 997.0 - 4.6 - Mostly clear 10 - - - -
05/05:30am 18.8 WNW 9 12 996.3 - 4.6 - Mostly clear 10 - - - -
05/05:00am 18.4 NNW 8 12 995.1 - 4.6 - Mostly clear 10 - - - -
05/04:30am 17.9 NNW 11 18 994.2 - 4.4 - Mostly clear 10 - - - -
05/04:00am 17.8 N 15 19 993.7 - 4.4 - Mostly clear 10 - - - -
05/03:30am 18.0 N 13 19 993.8 - 3.8 - Mostly clear 10 - - - -
05/03:16am 18.0 N 13 18 994.3 - 3.2 Showers Mostly clear 9 - - - -
05/03:00am 18.8 N 14 20 995.0 F 1.6 Showers Mostly cloudy 7 - - - -
05/02:50am 19.4 N 15 20 995.0 - 0.6 Showers Mostly clear 7 - - - -
05/02:30am 21.4 NNW 15 23 994.2 - 0.0 - Mostly clear 10 - - - -
05/02:00am 20.4 NE 13 20 994.3 - 0.0 - Mostly clear 10 - - - -
05/01:30am 20.1 NNE 14 19 995.4 - 0.0 - Partly cloudy 10 - - - -

Other Formats:

Comma delimited format used in spreadsheet applications
http://www.bom.gov.au/fwo/IDT60701/IDT60701.94975.axf

JavaScript Object Notation format (JSON) in row-major order
http://www.bom.gov.au/fwo/IDT60701/IDT60701.94975.json